createdAt,value
2023-10-14T00:01:58.939Z,0
2023-10-14T00:03:59.334Z,0
2023-10-14T00:05:58.758Z,0
2023-10-14T00:07:58.752Z,0
2023-10-14T00:09:59.398Z,0
2023-10-14T00:11:58.738Z,0
2023-10-14T00:13:58.721Z,0
2023-10-14T00:15:58.918Z,0
2023-10-14T00:17:59.033Z,0
2023-10-14T00:19:58.795Z,0
2023-10-14T00:21:58.993Z,0
2023-10-14T00:23:58.971Z,0
2023-10-14T00:25:58.742Z,0
2023-10-14T00:27:58.824Z,0
2023-10-14T00:29:58.905Z,0
2023-10-14T00:31:58.835Z,0
2023-10-14T00:33:58.889Z,0
2023-10-14T00:35:58.875Z,0
2023-10-14T00:37:58.719Z,0
2023-10-14T00:39:58.977Z,0
2023-10-14T00:41:58.723Z,0
2023-10-14T00:43:58.721Z,0
2023-10-14T00:45:59.111Z,0
2023-10-14T00:47:58.852Z,0
2023-10-14T00:49:58.726Z,0
2023-10-14T00:51:59.329Z,0
2023-10-14T00:53:58.728Z,0
2023-10-14T00:55:58.728Z,0
2023-10-14T00:57:58.764Z,0
2023-10-14T00:59:58.724Z,0
2023-10-14T01:01:58.936Z,0
2023-10-14T01:03:58.945Z,0
2023-10-14T01:05:59.009Z,0
2023-10-14T01:07:58.893Z,0
2023-10-14T01:09:58.930Z,0
2023-10-14T01:11:58.724Z,0
2023-10-14T01:13:58.742Z,0
2023-10-14T01:15:59.105Z,0
2023-10-14T01:17:58.899Z,0
2023-10-14T01:19:58.724Z,0
2023-10-14T01:21:59.127Z,0
2023-10-14T01:23:58.960Z,0
2023-10-14T01:25:58.720Z,0
2023-10-14T01:27:58.819Z,0
2023-10-14T01:29:58.926Z,0
2023-10-14T01:31:59.157Z,0
2023-10-14T01:33:59.138Z,0
2023-10-14T01:35:58.712Z,0
2023-10-14T01:37:58.716Z,0
2023-10-14T01:39:59.097Z,0
2023-10-14T01:41:58.700Z,0
2023-10-14T01:43:58.728Z,0
2023-10-14T01:45:59.110Z,0
2023-10-14T01:47:58.951Z,0
2023-10-14T01:49:58.717Z,0
2023-10-14T01:51:58.882Z,0
2023-10-14T01:53:58.753Z,0
2023-10-14T01:55:58.782Z,0
2023-10-14T01:57:59.073Z,0
2023-10-14T01:59:58.718Z,0
2023-10-14T02:01:59.124Z,0
2023-10-14T02:03:59.550Z,0
2023-10-14T02:05:58.705Z,0
2023-10-14T02:07:58.732Z,0
2023-10-14T02:09:59.063Z,0
2023-10-14T02:11:58.871Z,0
2023-10-14T02:13:58.825Z,0
2023-10-14T02:15:59.079Z,0
2023-10-14T02:17:58.892Z,0
2023-10-14T02:19:58.704Z,0
2023-10-14T02:21:59.840Z,0
2023-10-14T02:23:58.728Z,0
2023-10-14T02:25:58.717Z,0
2023-10-14T02:27:58.961Z,0
2023-10-14T02:29:58.832Z,0
2023-10-14T02:31:58.954Z,0
2023-10-14T02:33:58.907Z,0
2023-10-14T02:35:58.707Z,0
2023-10-14T02:37:58.703Z,0
2023-10-14T02:39:58.914Z,0
2023-10-14T02:41:58.710Z,0
2023-10-14T02:43:58.780Z,0
2023-10-14T02:45:58.952Z,0
2023-10-14T02:47:59.020Z,0
2023-10-14T02:49:58.732Z,0
2023-10-14T02:51:58.811Z,0
2023-10-14T02:53:58.689Z,0
2023-10-14T02:55:58.818Z,0
2023-10-14T02:57:58.936Z,0
2023-10-14T02:59:59.093Z,0
2023-10-14T03:01:58.996Z,0
2023-10-14T03:03:58.746Z,0
2023-10-14T03:05:58.701Z,0
2023-10-14T03:07:58.698Z,0
2023-10-14T03:09:59.053Z,0
2023-10-14T03:11:58.695Z,0
2023-10-14T03:13:58.719Z,0
2023-10-14T03:15:59.091Z,0
2023-10-14T03:17:58.875Z,0
2023-10-14T03:19:58.734Z,0
2023-10-14T03:21:59.077Z,0
2023-10-14T03:23:58.793Z,0
2023-10-14T03:25:58.685Z,0
2023-10-14T03:27:58.957Z,0
2023-10-14T03:29:58.685Z,0
2023-10-14T03:31:59.436Z,0
2023-10-14T03:33:58.904Z,0
2023-10-14T03:35:59.191Z,0
2023-10-14T03:37:58.691Z,0
2023-10-14T03:39:58.926Z,0
2023-10-14T03:41:58.685Z,0
2023-10-14T03:43:58.741Z,0
2023-10-14T03:45:58.859Z,0
2023-10-14T03:47:59.086Z,0
2023-10-14T03:49:58.776Z,0
2023-10-14T03:51:59.224Z,0
2023-10-14T03:53:58.676Z,0
2023-10-14T03:55:58.704Z,0
2023-10-14T03:57:58.855Z,0
2023-10-14T03:59:58.726Z,0
2023-10-14T04:01:59.546Z,0
2023-10-14T04:03:59.072Z,0
2023-10-14T04:05:58.786Z,0
2023-10-14T04:07:58.708Z,0
2023-10-14T04:09:58.922Z,0
2023-10-14T04:12:02.220Z,0
2023-10-14T04:13:58.682Z,0
2023-10-14T04:15:58.886Z,0
2023-10-14T04:17:59.030Z,0
2023-10-14T04:19:59.298Z,0
2023-10-14T04:21:58.947Z,0
2023-10-14T04:23:58.693Z,0
2023-10-14T04:25:58.688Z,0
2023-10-14T04:27:58.783Z,0
2023-10-14T04:29:58.680Z,0
2023-10-14T04:31:59.059Z,0
2023-10-14T04:33:58.828Z,0
2023-10-14T04:35:58.923Z,0
2023-10-14T04:37:58.695Z,21.142
2023-10-14T04:41:58.733Z,21.142
2023-10-14T04:43:58.705Z,21.142
2023-10-14T04:45:59.049Z,21.142
2023-10-14T04:47:59.112Z,21.142
2023-10-14T04:49:58.716Z,21.142
2023-10-14T04:51:59.024Z,7.789
2023-10-14T04:53:58.691Z,7.789
2023-10-14T04:55:58.742Z,7.789
2023-10-14T04:57:58.919Z,7.789
2023-10-14T04:59:58.826Z,7.789
2023-10-14T05:01:58.827Z,7.789
2023-10-14T05:03:59.471Z,7.789
2023-10-14T05:05:58.766Z,7.789
2023-10-14T05:07:58.849Z,0
2023-10-14T05:09:59.067Z,0
2023-10-14T05:11:58.724Z,0
2023-10-14T05:13:58.720Z,0
2023-10-14T05:15:59.067Z,0
2023-10-14T05:17:58.881Z,0
2023-10-14T05:19:58.916Z,0
2023-10-14T05:21:59.102Z,0
2023-10-14T05:23:59.128Z,0
2023-10-14T05:25:58.695Z,0
2023-10-14T05:27:59.680Z,0
2023-10-14T05:29:58.697Z,0
2023-10-14T05:31:59.034Z,0
2023-10-14T05:33:58.862Z,0
2023-10-14T05:35:58.882Z,0
2023-10-14T05:37:58.695Z,0
2023-10-14T05:39:58.880Z,0
2023-10-14T05:41:58.712Z,0
2023-10-14T05:43:58.687Z,0
2023-10-14T05:45:59.301Z,0
2023-10-14T05:47:58.850Z,0
2023-10-14T05:49:59.412Z,0
2023-10-14T05:51:58.889Z,0
2023-10-14T05:53:58.682Z,0
2023-10-14T05:55:58.894Z,0
2023-10-14T05:57:58.855Z,0
2023-10-14T05:59:59.740Z,0
2023-10-14T06:01:58.906Z,0
2023-10-14T06:03:59.030Z,0
2023-10-14T06:05:58.759Z,0
2023-10-14T06:07:58.725Z,0
2023-10-14T06:09:58.816Z,0
2023-10-14T06:12:03.560Z,0
2023-10-14T06:13:58.677Z,0
2023-10-14T06:15:58.817Z,0
2023-10-14T06:17:59.010Z,0
2023-10-14T06:19:58.732Z,0
2023-10-14T06:21:58.811Z,0
2023-10-14T06:23:58.689Z,0
2023-10-14T06:25:58.696Z,0
2023-10-14T06:28:05.217Z,0
2023-10-14T06:29:58.680Z,0
2023-10-14T06:32:21.665Z,0
2023-10-14T06:33:58.866Z,0
2023-10-14T06:35:58.819Z,0
2023-10-14T06:37:58.674Z,0
2023-10-14T06:39:59.771Z,0
2023-10-14T06:41:58.675Z,0
2023-10-14T06:43:59.033Z,0
2023-10-14T06:45:59.729Z,0
2023-10-14T06:47:59.095Z,0
2023-10-14T06:49:58.821Z,0
2023-10-14T06:51:58.900Z,0
2023-10-14T06:53:58.721Z,0
2023-10-14T06:55:58.699Z,0
2023-10-14T06:57:58.779Z,0
2023-10-14T06:59:58.844Z,0
2023-10-14T07:01:58.820Z,0
2023-10-14T07:03:59.100Z,0
2023-10-14T07:05:58.814Z,0
2023-10-14T07:07:58.833Z,0
2023-10-14T07:09:58.985Z,0
2023-10-14T07:11:58.742Z,0
2023-10-14T07:13:58.766Z,0
2023-10-14T07:15:59.080Z,0
2023-10-14T07:17:58.839Z,0
2023-10-14T07:19:58.685Z,0
2023-10-14T07:21:58.904Z,0
2023-10-14T07:23:58.740Z,0
2023-10-14T07:25:58.759Z,0
2023-10-14T07:27:58.930Z,0
2023-10-14T07:29:58.642Z,0
2023-10-14T07:31:59.375Z,0
2023-10-14T07:33:59.274Z,0
2023-10-14T07:35:58.715Z,0
2023-10-14T07:37:58.676Z,17.804
2023-10-14T07:39:58.841Z,17.804
2023-10-14T07:41:58.830Z,17.804
2023-10-14T07:43:59.397Z,17.804
2023-10-14T07:45:59.107Z,17.804
2023-10-14T07:47:59.141Z,17.804
2023-10-14T07:49:58.713Z,17.804
2023-10-14T07:51:58.719Z,0
2023-10-14T07:53:58.968Z,0
2023-10-14T07:55:58.683Z,0
2023-10-14T07:57:58.874Z,0
2023-10-14T07:59:58.640Z,0
2023-10-14T08:01:59.182Z,0
2023-10-14T08:04:00.061Z,0
2023-10-14T08:05:58.771Z,0
2023-10-14T08:07:58.675Z,1.113
2023-10-14T08:09:58.842Z,1.113
2023-10-14T08:11:58.653Z,1.113
2023-10-14T08:13:58.659Z,1.113
2023-10-14T08:15:59.022Z,1.113
2023-10-14T08:17:59.032Z,1.113
2023-10-14T08:19:58.884Z,1.113
2023-10-14T08:21:59.118Z,20.029
2023-10-14T08:23:58.641Z,20.029
2023-10-14T08:25:58.742Z,20.029
2023-10-14T08:27:58.903Z,20.029
2023-10-14T08:29:58.635Z,20.029
2023-10-14T08:31:59.274Z,20.029
2023-10-14T08:33:58.971Z,20.029
2023-10-14T08:35:58.888Z,20.029
2023-10-14T08:37:58.709Z,2.225
2023-10-14T08:39:58.714Z,2.225
2023-10-14T08:41:58.668Z,2.225
2023-10-14T08:43:58.660Z,2.225
2023-10-14T08:45:58.921Z,2.225
2023-10-14T08:47:58.974Z,2.225
2023-10-14T08:49:58.685Z,2.225
2023-10-14T08:51:59.886Z,0
2023-10-14T08:53:58.684Z,0
2023-10-14T08:55:58.681Z,0
2023-10-14T08:57:58.833Z,0
2023-10-14T08:59:58.810Z,0
2023-10-14T09:01:59.391Z,0
2023-10-14T09:03:59.205Z,0
2023-10-14T09:05:58.690Z,0
2023-10-14T09:07:58.912Z,0
2023-10-14T09:09:59.290Z,0
2023-10-14T09:11:58.634Z,0
2023-10-14T09:13:58.673Z,0
2023-10-14T09:15:59.188Z,0
2023-10-14T09:17:58.839Z,0
2023-10-14T09:19:58.639Z,0
2023-10-14T09:21:59.066Z,0
2023-10-14T09:23:58.753Z,0
2023-10-14T09:25:58.673Z,0
2023-10-14T09:27:58.874Z,0
2023-10-14T09:29:59.110Z,0
2023-10-14T09:31:59.203Z,0
2023-10-14T09:33:58.928Z,0
2023-10-14T09:36:04.553Z,0
2023-10-14T09:37:58.650Z,1.113
2023-10-14T09:40:05.194Z,1.113
2023-10-14T09:41:59.593Z,1.113
2023-10-14T09:43:58.833Z,1.113
2023-10-14T09:45:59.503Z,1.113
2023-10-14T09:47:58.957Z,1.113
2023-10-14T09:49:58.940Z,1.113
2023-10-14T09:51:59.925Z,26.706
2023-10-14T09:54:00.064Z,26.706
2023-10-14T09:55:58.875Z,26.706
2023-10-14T09:58:00.751Z,26.706
2023-10-14T09:59:58.632Z,26.706
2023-10-14T10:01:59.275Z,26.706
2023-10-14T10:03:59.580Z,26.706
2023-10-14T10:05:58.642Z,26.706
2023-10-14T10:07:58.648Z,33.382
2023-10-14T10:09:59.205Z,33.382
2023-10-14T10:11:58.865Z,33.382
2023-10-14T10:13:58.833Z,33.382
2023-10-14T10:15:59.283Z,33.382
2023-10-14T10:17:59.225Z,33.382
2023-10-14T10:19:59.318Z,33.382
2023-10-14T10:21:59.639Z,5.564
2023-10-14T10:23:58.833Z,5.564
2023-10-14T10:25:58.674Z,5.564
2023-10-14T10:27:59.010Z,5.564
2023-10-14T10:29:58.621Z,5.564
2023-10-14T10:31:59.398Z,5.564
2023-10-14T10:33:58.970Z,5.564
2023-10-14T10:35:58.658Z,5.564
2023-10-14T10:37:58.821Z,0
2023-10-14T10:39:58.984Z,0
2023-10-14T10:41:58.685Z,0
2023-10-14T10:43:58.899Z,0
2023-10-14T10:45:58.800Z,0
2023-10-14T10:47:58.739Z,0
2023-10-14T10:49:58.624Z,0
2023-10-14T10:51:58.777Z,0
2023-10-14T10:53:58.638Z,0
2023-10-14T10:55:59.630Z,0
2023-10-14T10:57:58.729Z,0
2023-10-14T10:59:59.177Z,0
2023-10-14T11:01:59.206Z,0
2023-10-14T11:03:59.140Z,0
2023-10-14T11:05:58.758Z,0
2023-10-14T11:07:58.692Z,0
2023-10-14T11:09:58.812Z,0
2023-10-14T11:11:58.737Z,0
2023-10-14T11:13:58.665Z,0
2023-10-14T11:15:58.854Z,0
2023-10-14T11:17:58.949Z,0
2023-10-14T11:19:58.857Z,0
2023-10-14T11:21:58.690Z,0
2023-10-14T11:23:58.682Z,0
2023-10-14T11:25:58.712Z,0
2023-10-14T11:27:58.820Z,0
2023-10-14T11:29:58.571Z,0
2023-10-14T11:31:58.979Z,0
2023-10-14T11:33:58.960Z,0
2023-10-14T11:35:58.660Z,0
2023-10-14T11:37:59.027Z,11.127
2023-10-14T11:39:58.704Z,11.127
2023-10-14T11:41:58.575Z,11.127
2023-10-14T11:43:58.594Z,11.127
2023-10-14T11:45:58.957Z,11.127
2023-10-14T11:47:58.971Z,11.127
2023-10-14T11:49:58.596Z,11.127
2023-10-14T11:51:58.677Z,8.902
2023-10-14T11:53:58.579Z,8.902
2023-10-14T11:55:58.586Z,8.902
2023-10-14T11:57:58.747Z,8.902
2023-10-14T11:59:58.569Z,8.902
2023-10-14T12:01:58.561Z,8.902
2023-10-14T12:03:59.261Z,8.902
2023-10-14T12:05:59.277Z,8.902
2023-10-14T12:07:58.586Z,0
2023-10-14T12:09:58.913Z,0
2023-10-14T12:11:58.579Z,0
2023-10-14T12:13:58.742Z,0
2023-10-14T12:15:58.743Z,0
2023-10-14T12:17:58.891Z,0
2023-10-14T12:19:58.793Z,0
2023-10-14T12:21:58.805Z,8.902
2023-10-14T12:23:58.694Z,8.902
2023-10-14T12:25:58.576Z,8.902
2023-10-14T12:27:58.652Z,8.902
2023-10-14T12:29:58.566Z,8.902
2023-10-14T12:32:19.673Z,8.902
2023-10-14T12:33:58.785Z,8.902
2023-10-14T12:35:58.702Z,8.902
2023-10-14T12:37:58.599Z,16.691
2023-10-14T12:39:58.819Z,16.691
2023-10-14T12:41:58.737Z,16.691
2023-10-14T12:43:58.567Z,16.691
2023-10-14T12:45:58.768Z,16.691
2023-10-14T12:47:58.884Z,16.691
2023-10-14T12:50:02.784Z,16.691
2023-10-14T12:51:59.125Z,2.225
2023-10-14T12:53:58.578Z,2.225
2023-10-14T12:55:58.584Z,2.225
2023-10-14T12:57:58.967Z,2.225
2023-10-14T12:59:58.571Z,2.225
2023-10-14T13:01:58.867Z,2.225
2023-10-14T13:03:58.930Z,2.225
2023-10-14T13:05:58.562Z,2.225
2023-10-14T13:07:58.722Z,0
2023-10-14T13:09:58.716Z,0
2023-10-14T13:11:58.550Z,0
2023-10-14T13:13:58.553Z,0
2023-10-14T13:15:58.780Z,0
2023-10-14T13:17:58.803Z,0
2023-10-14T13:19:58.605Z,0
2023-10-14T13:21:58.773Z,0
2023-10-14T13:23:58.829Z,0
2023-10-14T13:25:58.580Z,0
2023-10-14T13:27:58.801Z,0
2023-10-14T13:29:58.571Z,0
2023-10-14T13:31:58.686Z,0
2023-10-14T13:33:58.786Z,0
2023-10-14T13:35:58.559Z,0
2023-10-14T13:37:58.552Z,18.917
2023-10-14T13:39:58.757Z,18.917
2023-10-14T13:41:58.553Z,18.917
2023-10-14T13:43:58.567Z,18.917
2023-10-14T13:45:58.964Z,18.917
2023-10-14T13:47:58.899Z,18.917
2023-10-14T13:49:58.552Z,18.917
2023-10-14T13:51:58.714Z,10.015
2023-10-14T13:53:58.544Z,10.015
2023-10-14T13:55:58.651Z,10.015
2023-10-14T13:57:58.644Z,10.015
2023-10-14T13:59:58.545Z,10.015
2023-10-14T14:01:58.987Z,10.015
2023-10-14T14:03:59.670Z,10.015
2023-10-14T14:05:58.590Z,10.015
2023-10-14T14:07:58.555Z,4.451
2023-10-14T14:09:58.889Z,4.451
2023-10-14T14:11:58.875Z,4.451
2023-10-14T14:13:58.547Z,4.451
2023-10-14T14:16:01.754Z,4.451
2023-10-14T14:17:58.797Z,4.451
2023-10-14T14:19:58.566Z,4.451
2023-10-14T14:21:58.809Z,2.225
2023-10-14T14:23:58.545Z,2.225
2023-10-14T14:25:58.570Z,2.225
2023-10-14T14:27:58.618Z,2.225
2023-10-14T14:29:58.548Z,2.225
2023-10-14T14:31:58.954Z,2.225
2023-10-14T14:33:58.543Z,2.225
2023-10-14T14:35:58.723Z,2.225
2023-10-14T14:37:58.542Z,0
2023-10-14T14:39:58.648Z,0
2023-10-14T14:41:58.543Z,0
2023-10-14T14:43:58.802Z,0
2023-10-14T14:45:58.896Z,0
2023-10-14T14:47:58.880Z,0
2023-10-14T14:49:58.534Z,0
2023-10-14T14:51:58.547Z,0
2023-10-14T14:53:58.552Z,0
2023-10-14T14:55:58.533Z,0
2023-10-14T14:57:58.543Z,0
2023-10-14T14:59:58.778Z,0
2023-10-14T15:01:59.566Z,0
2023-10-14T15:03:58.694Z,0
2023-10-14T15:05:58.523Z,0
2023-10-14T15:07:58.535Z,0
2023-10-14T15:09:58.536Z,0
2023-10-14T15:11:58.532Z,0
2023-10-14T15:13:58.529Z,0
2023-10-14T15:15:58.832Z,0
2023-10-14T15:17:58.963Z,0
2023-10-14T15:19:58.523Z,0
2023-10-14T15:21:58.514Z,2.225
2023-10-14T15:23:58.826Z,2.225
2023-10-14T15:25:58.529Z,2.225
2023-10-14T15:27:58.658Z,2.225
2023-10-14T15:29:58.530Z,2.225
2023-10-14T15:31:59.053Z,2.225
2023-10-14T15:33:58.517Z,2.225
2023-10-14T15:35:58.563Z,2.225
2023-10-14T15:37:58.521Z,2.225
2023-10-14T15:39:58.533Z,2.225
2023-10-14T15:41:58.527Z,2.225
2023-10-14T15:43:58.534Z,2.225
2023-10-14T15:45:58.929Z,2.225
2023-10-14T15:47:59.041Z,2.225
2023-10-14T15:49:58.565Z,2.225
2023-10-14T15:51:58.525Z,20.029
2023-10-14T15:53:58.543Z,20.029
2023-10-14T15:55:58.591Z,20.029
2023-10-14T15:57:58.854Z,20.029
2023-10-14T15:59:58.517Z,20.029
2023-10-14T16:01:59.056Z,20.029
2023-10-14T16:03:59.094Z,20.029
2023-10-14T16:05:58.933Z,20.029
2023-10-14T16:07:58.834Z,2.225
2023-10-14T16:09:58.509Z,2.225
2023-10-14T16:11:58.664Z,2.225
2023-10-14T16:13:58.525Z,2.225
2023-10-14T16:15:58.581Z,2.225
2023-10-14T16:17:58.884Z,2.225
2023-10-14T16:19:58.867Z,2.225
2023-10-14T16:21:58.511Z,2.225
2023-10-14T16:23:58.527Z,2.225
2023-10-14T16:25:58.548Z,2.225
2023-10-14T16:27:58.521Z,2.225
2023-10-14T16:29:58.537Z,2.225
2023-10-14T16:31:58.934Z,2.225
2023-10-14T16:33:58.548Z,2.225
2023-10-14T16:35:58.857Z,2.225
2023-10-14T16:37:58.636Z,2.225
2023-10-14T16:39:58.526Z,2.225
2023-10-14T16:41:58.504Z,2.225
2023-10-14T16:43:58.526Z,2.225
2023-10-14T16:45:59.343Z,2.225
2023-10-14T16:47:58.716Z,2.225
2023-10-14T16:49:58.943Z,2.225
2023-10-14T16:51:58.579Z,0
2023-10-14T16:53:58.516Z,0
2023-10-14T16:55:58.527Z,0
2023-10-14T16:57:58.522Z,0
2023-10-14T16:59:58.527Z,0
2023-10-14T17:01:58.876Z,0
2023-10-14T17:03:58.721Z,0
2023-10-14T17:05:58.505Z,0
2023-10-14T17:07:58.874Z,0
2023-10-14T17:09:58.503Z,0
2023-10-14T17:11:58.561Z,0
2023-10-14T17:14:00.032Z,0
2023-10-14T17:15:58.814Z,0
2023-10-14T17:17:58.745Z,0
2023-10-14T17:19:58.631Z,0
2023-10-14T17:21:58.501Z,0
2023-10-14T17:23:58.598Z,0
2023-10-14T17:25:58.542Z,0
2023-10-14T17:27:58.516Z,0
2023-10-14T17:29:58.512Z,0
2023-10-14T17:31:58.889Z,0
2023-10-14T17:33:58.493Z,0
2023-10-14T17:35:58.988Z,0
2023-10-14T17:37:59.004Z,0
2023-10-14T17:39:58.576Z,0
2023-10-14T17:41:58.498Z,0
2023-10-14T17:43:58.498Z,0
2023-10-14T17:45:58.818Z,0
2023-10-14T17:48:02.715Z,0
2023-10-14T17:49:58.557Z,0
2023-10-14T17:51:58.523Z,0
2023-10-14T17:53:58.594Z,0
2023-10-14T17:55:58.643Z,0
2023-10-14T17:57:58.571Z,0
2023-10-14T17:59:58.564Z,0
2023-10-14T18:01:58.738Z,0
2023-10-14T18:03:58.727Z,0
2023-10-14T18:05:58.514Z,0
2023-10-14T18:07:58.513Z,2.225
2023-10-14T18:09:58.557Z,2.225
2023-10-14T18:11:58.836Z,2.225
2023-10-14T18:13:58.535Z,2.225
2023-10-14T18:15:58.643Z,2.225
2023-10-14T18:17:59.317Z,2.225
2023-10-14T18:19:58.522Z,2.225
2023-10-14T18:21:58.519Z,0
2023-10-14T18:23:58.542Z,0
2023-10-14T18:25:58.504Z,0
2023-10-14T18:27:58.627Z,0
2023-10-14T18:29:58.540Z,0
2023-10-14T18:31:58.790Z,0
2023-10-14T18:33:58.514Z,0
2023-10-14T18:35:58.524Z,0
2023-10-14T18:37:58.514Z,0
2023-10-14T18:39:58.475Z,0
2023-10-14T18:41:58.591Z,0
2023-10-14T18:43:58.592Z,0
2023-10-14T18:45:59.077Z,0
2023-10-14T18:47:58.860Z,0
2023-10-14T18:49:58.536Z,0
2023-10-14T18:51:58.725Z,1.113
2023-10-14T18:53:58.497Z,1.113
2023-10-14T18:55:58.554Z,1.113
2023-10-14T18:57:58.502Z,1.113
2023-10-14T18:59:58.951Z,1.113
2023-10-14T19:01:58.708Z,1.113
2023-10-14T19:03:59.607Z,1.113
2023-10-14T19:05:58.563Z,1.113
2023-10-14T19:07:58.511Z,2.225
2023-10-14T19:09:58.512Z,2.225
2023-10-14T19:11:58.534Z,2.225
2023-10-14T19:13:58.531Z,2.225
2023-10-14T19:15:58.675Z,2.225
2023-10-14T19:17:58.872Z,2.225
2023-10-14T19:19:59.046Z,2.225
2023-10-14T19:21:58.517Z,0
2023-10-14T19:23:58.511Z,0
2023-10-14T19:25:58.560Z,0
2023-10-14T19:27:58.584Z,0
2023-10-14T19:29:58.500Z,0
2023-10-14T19:31:58.877Z,0
2023-10-14T19:33:58.641Z,0
2023-10-14T19:35:58.530Z,0
2023-10-14T19:37:58.770Z,0
2023-10-14T19:39:58.550Z,0
2023-10-14T19:41:58.626Z,0
2023-10-14T19:43:58.682Z,0
2023-10-14T19:45:58.596Z,0
2023-10-14T19:47:58.799Z,0
2023-10-14T19:49:59.171Z,0
2023-10-14T19:51:58.653Z,2.225
2023-10-14T19:53:58.542Z,2.225
2023-10-14T19:55:58.506Z,2.225
2023-10-14T19:57:58.564Z,2.225
2023-10-14T19:59:58.693Z,2.225
2023-10-14T20:01:58.927Z,2.225
2023-10-14T20:03:59.200Z,2.225
2023-10-14T20:06:01.134Z,2.225
2023-10-14T20:07:58.703Z,0
2023-10-14T20:09:58.504Z,0
2023-10-14T20:11:58.566Z,0
2023-10-14T20:13:58.528Z,0
2023-10-14T20:15:58.660Z,0
2023-10-14T20:17:58.779Z,0
2023-10-14T20:19:58.635Z,0
2023-10-14T20:21:58.516Z,0
2023-10-14T20:23:58.500Z,0
2023-10-14T20:26:01.359Z,0
2023-10-14T20:27:58.662Z,0
2023-10-14T20:29:58.589Z,0
2023-10-14T20:31:58.829Z,0
2023-10-14T20:33:58.682Z,0
2023-10-14T20:35:58.560Z,0
2023-10-14T20:37:58.581Z,0
2023-10-14T20:39:58.473Z,0
2023-10-14T20:41:58.482Z,0
2023-10-14T20:43:58.675Z,0
2023-10-14T20:45:58.793Z,0
2023-10-14T20:47:58.979Z,0
2023-10-14T20:49:58.511Z,0
2023-10-14T20:51:58.621Z,0
2023-10-14T20:54:05.535Z,0
2023-10-14T20:55:58.856Z,0
2023-10-14T20:57:58.504Z,0
2023-10-14T20:59:58.497Z,0
2023-10-14T21:01:58.903Z,0
2023-10-14T21:03:59.054Z,0
2023-10-14T21:05:59.271Z,0
2023-10-14T21:07:58.619Z,1.113
2023-10-14T21:09:58.505Z,1.113
2023-10-14T21:11:58.479Z,1.113
2023-10-14T21:13:58.682Z,1.113
2023-10-14T21:15:58.705Z,1.113
2023-10-14T21:17:58.576Z,1.113
2023-10-14T21:19:58.653Z,1.113
2023-10-14T21:21:58.490Z,0
2023-10-14T21:23:58.586Z,0
2023-10-14T21:25:58.506Z,0
2023-10-14T21:27:58.472Z,0
2023-10-14T21:29:58.589Z,0
2023-10-14T21:31:58.862Z,0
2023-10-14T21:33:58.475Z,0
2023-10-14T21:35:58.513Z,0
2023-10-14T21:37:58.792Z,0
2023-10-14T21:39:58.827Z,0
2023-10-14T21:41:58.473Z,0
2023-10-14T21:43:58.823Z,0
2023-10-14T21:45:58.581Z,0
2023-10-14T21:47:58.603Z,0
2023-10-14T21:49:58.481Z,0
2023-10-14T21:51:58.485Z,0
2023-10-14T21:53:58.477Z,0
2023-10-14T21:55:58.788Z,0
2023-10-14T21:57:58.494Z,0
2023-10-14T21:59:58.792Z,0
2023-10-14T22:01:58.859Z,0
2023-10-14T22:03:59.152Z,0
2023-10-14T22:05:58.552Z,0
2023-10-14T22:07:58.593Z,0
2023-10-14T22:09:58.718Z,0
2023-10-14T22:11:58.769Z,0
2023-10-14T22:13:58.510Z,0
2023-10-14T22:15:58.738Z,0
2023-10-14T22:17:58.688Z,0
2023-10-14T22:19:58.500Z,0
2023-10-14T22:21:58.745Z,0
2023-10-14T22:23:58.486Z,0
2023-10-14T22:25:59.470Z,0
2023-10-14T22:28:00.930Z,0
2023-10-14T22:30:08.851Z,0
2023-10-14T22:31:59.028Z,0
2023-10-14T22:34:00.490Z,0
2023-10-14T22:35:59.321Z,0
2023-10-14T22:37:59.255Z,0
2023-10-14T22:39:58.824Z,0
2023-10-14T22:42:01.437Z,0
2023-10-14T22:43:58.781Z,0
2023-10-14T22:45:58.678Z,0
2023-10-14T22:47:59.076Z,0
2023-10-14T22:49:59.082Z,0
2023-10-14T22:51:58.853Z,0
2023-10-14T22:53:58.501Z,0
2023-10-14T22:55:58.770Z,0
2023-10-14T22:57:58.856Z,0
2023-10-14T22:59:59.412Z,0
2023-10-14T23:01:59.204Z,0
2023-10-14T23:03:58.696Z,0
2023-10-14T23:05:59.913Z,0
2023-10-14T23:07:58.471Z,0
2023-10-14T23:09:58.667Z,0
2023-10-14T23:11:58.675Z,0
2023-10-14T23:13:58.786Z,0
2023-10-14T23:15:58.621Z,0
2023-10-14T23:18:00.562Z,0
2023-10-14T23:19:58.627Z,0
2023-10-14T23:21:58.532Z,0
2023-10-14T23:23:58.571Z,0
2023-10-14T23:25:58.585Z,0
2023-10-14T23:27:58.414Z,0
2023-10-14T23:29:58.537Z,0
2023-10-14T23:31:59.425Z,0
2023-10-14T23:33:58.595Z,0
2023-10-14T23:35:58.486Z,0
2023-10-14T23:37:58.748Z,0
2023-10-14T23:39:58.577Z,0
2023-10-14T23:42:01.751Z,0
2023-10-14T23:44:01.634Z,0
2023-10-14T23:45:58.570Z,0
2023-10-14T23:47:58.684Z,0
2023-10-14T23:49:58.606Z,0
2023-10-14T23:51:58.670Z,0
2023-10-14T23:53:58.449Z,0
2023-10-14T23:55:58.778Z,0
2023-10-14T23:57:58.721Z,0
2023-10-14T23:59:58.534Z,0
